sensor_id;sensor_type;location;lat;lon;timestamp;pressure;altitude;pressure_sealevel;temperature;humidity
55517;BME280;41724;51.176;-0.708;2023-02-10T00:00:21;103211.51;;;4.21;48.95
55517;BME280;41724;51.176;-0.708;2023-02-10T00:02:49;103208.60;;;3.89;49.03
55517;BME280;41724;51.176;-0.708;2023-02-10T00:05:16;103208.82;;;4.41;48.55
55517;BME280;41724;51.176;-0.708;2023-02-10T00:07:43;103214.03;;;4.36;48.11
55517;BME280;41724;51.176;-0.708;2023-02-10T00:10:10;103218.59;;;4.18;48.08
55517;BME280;41724;51.176;-0.708;2023-02-10T00:12:37;103218.67;;;4.22;47.94
55517;BME280;41724;51.176;-0.708;2023-02-10T00:15:06;103222.41;;;4.16;48.23
55517;BME280;41724;51.176;-0.708;2023-02-10T00:17:34;103225.69;;;4.04;48.97
55517;BME280;41724;51.176;-0.708;2023-02-10T00:20:01;103230.54;;;3.72;49.40
55517;BME280;41724;51.176;-0.708;2023-02-10T00:22:29;103231.70;;;3.58;49.81
55517;BME280;41724;51.176;-0.708;2023-02-10T00:24:55;103233.95;;;3.75;49.31
55517;BME280;41724;51.176;-0.708;2023-02-10T00:27:22;103228.91;;;3.77;49.17
55517;BME280;41724;51.176;-0.708;2023-02-10T00:29:51;103227.83;;;4.29;48.93
55517;BME280;41724;51.176;-0.708;2023-02-10T00:32:19;103226.25;;;3.85;48.77
55517;BME280;41724;51.176;-0.708;2023-02-10T00:34:47;103226.36;;;3.89;48.73
55517;BME280;41724;51.176;-0.708;2023-02-10T00:37:14;103226.96;;;3.68;49.49
55517;BME280;41724;51.176;-0.708;2023-02-10T00:39:41;103223.34;;;3.56;49.37
55517;BME280;41724;51.176;-0.708;2023-02-10T00:42:09;103223.75;;;3.55;49.31
55517;BME280;41724;51.176;-0.708;2023-02-10T00:44:36;103220.47;;;3.49;49.43
55517;BME280;41724;51.176;-0.708;2023-02-10T00:47:02;103216.70;;;3.62;48.95
55517;BME280;41724;51.176;-0.708;2023-02-10T00:49:30;103216.86;;;3.82;48.54
55517;BME280;41724;51.176;-0.708;2023-02-10T00:51:56;103218.39;;;4.02;48.75
55517;BME280;41724;51.176;-0.708;2023-02-10T00:54:24;103221.02;;;3.64;48.87
55517;BME280;41724;51.176;-0.708;2023-02-10T00:56:51;103212.85;;;3.59;49.85
55517;BME280;41724;51.176;-0.708;2023-02-10T00:59:18;103214.27;;;3.63;49.87
55517;BME280;41724;51.176;-0.708;2023-02-10T01:01:45;103210.24;;;3.43;49.47
55517;BME280;41724;51.176;-0.708;2023-02-10T01:04:12;103210.63;;;3.80;49.27
55517;BME280;41724;51.176;-0.708;2023-02-10T01:06:39;103208.10;;;3.46;49.25
55517;BME280;41724;51.176;-0.708;2023-02-10T01:09:06;103209.66;;;3.60;48.79
55517;BME280;41724;51.176;-0.708;2023-02-10T01:11:33;103201.99;;;3.31;48.89
55517;BME280;41724;51.176;-0.708;2023-02-10T01:14:01;103198.44;;;3.42;48.40
55517;BME280;41724;51.176;-0.708;2023-02-10T01:16:30;103200.82;;;3.60;48.63
55517;BME280;41724;51.176;-0.708;2023-02-10T01:19:00;103202.52;;;3.80;48.74
55517;BME280;41724;51.176;-0.708;2023-02-10T01:21:28;103203.39;;;3.78;48.65
55517;BME280;41724;51.176;-0.708;2023-02-10T01:23:55;103206.62;;;3.37;48.67
55517;BME280;41724;51.176;-0.708;2023-02-10T01:26:24;103202.77;;;3.71;48.67
55517;BME280;41724;51.176;-0.708;2023-02-10T01:28:51;103203.93;;;3.69;48.42
55517;BME280;41724;51.176;-0.708;2023-02-10T01:31:19;103204.49;;;3.34;47.89
55517;BME280;41724;51.176;-0.708;2023-02-10T01:33:50;103203.90;;;3.48;47.94
55517;BME280;41724;51.176;-0.708;2023-02-10T01:36:19;103209.14;;;3.51;48.57
55517;BME280;41724;51.176;-0.708;2023-02-10T01:38:46;103206.21;;;3.29;48.18
55517;BME280;41724;51.176;-0.708;2023-02-10T01:41:17;103210.06;;;3.29;48.65
55517;BME280;41724;51.176;-0.708;2023-02-10T01:44:01;103209.33;;;3.48;48.31
55517;BME280;41724;51.176;-0.708;2023-02-10T01:46:29;103217.87;;;3.22;48.98
55517;BME280;41724;51.176;-0.708;2023-02-10T01:49:02;103216.80;;;3.26;48.16
55517;BME280;41724;51.176;-0.708;2023-02-10T01:51:38;103213.83;;;3.05;48.89
55517;BME280;41724;51.176;-0.708;2023-02-10T01:54:09;103210.56;;;3.52;48.20
55517;BME280;41724;51.176;-0.708;2023-02-10T01:56:38;103208.79;;;3.44;48.01
55517;BME280;41724;51.176;-0.708;2023-02-10T01:59:06;103205.08;;;3.04;48.11
55517;BME280;41724;51.176;-0.708;2023-02-10T02:01:34;103197.86;;;2.73;48.29
55517;BME280;41724;51.176;-0.708;2023-02-10T02:04:02;103196.06;;;2.96;48.58
55517;BME280;41724;51.176;-0.708;2023-02-10T02:06:29;103194.82;;;3.04;48.50
55517;BME280;41724;51.176;-0.708;2023-02-10T02:08:56;103200.01;;;3.06;48.81
55517;BME280;41724;51.176;-0.708;2023-02-10T02:11:29;103204.41;;;3.05;48.86
55517;BME280;41724;51.176;-0.708;2023-02-10T02:14:13;103205.55;;;3.26;48.33
55517;BME280;41724;51.176;-0.708;2023-02-10T02:16:52;103199.57;;;2.79;48.65
55517;BME280;41724;51.176;-0.708;2023-02-10T02:19:48;103198.46;;;3.24;47.83
55517;BME280;41724;51.176;-0.708;2023-02-10T02:22:34;103196.87;;;2.96;49.01
55517;BME280;41724;51.176;-0.708;2023-02-10T02:25:21;103202.91;;;3.12;48.22
55517;BME280;41724;51.176;-0.708;2023-02-10T02:28:08;103203.53;;;2.76;48.43
55517;BME280;41724;51.176;-0.708;2023-02-10T02:30:57;103210.91;;;2.82;48.79
55517;BME280;41724;51.176;-0.708;2023-02-10T02:33:39;103210.16;;;3.21;48.15
55517;BME280;41724;51.176;-0.708;2023-02-10T02:36:11;103205.78;;;3.07;48.19
55517;BME280;41724;51.176;-0.708;2023-02-10T02:38:40;103211.39;;;3.10;47.81
55517;BME280;41724;51.176;-0.708;2023-02-10T02:41:08;103219.62;;;2.96;48.18
55517;BME280;41724;51.176;-0.708;2023-02-10T02:43:35;103217.96;;;3.15;47.95
55517;BME280;41724;51.176;-0.708;2023-02-10T02:46:10;103211.70;;;2.95;48.30
55517;BME280;41724;51.176;-0.708;2023-02-10T02:48:51;103212.56;;;2.78;48.34
55517;BME280;41724;51.176;-0.708;2023-02-10T02:51:34;103218.43;;;2.59;48.61
55517;BME280;41724;51.176;-0.708;2023-02-10T02:54:16;103223.49;;;2.50;48.64
55517;BME280;41724;51.176;-0.708;2023-02-10T02:56:47;103228.30;;;2.61;48.63
55517;BME280;41724;51.176;-0.708;2023-02-10T02:59:22;103231.38;;;2.74;48.50
55517;BME280;41724;51.176;-0.708;2023-02-10T03:01:52;103228.71;;;2.60;47.83
55517;BME280;41724;51.176;-0.708;2023-02-10T03:04:21;103232.21;;;2.88;48.05
55517;BME280;41724;51.176;-0.708;2023-02-10T03:06:48;103226.49;;;2.60;48.21
55517;BME280;41724;51.176;-0.708;2023-02-10T03:09:15;103221.10;;;2.36;48.21
55517;BME280;41724;51.176;-0.708;2023-02-10T03:11:43;103219.84;;;2.65;48.00
55517;BME280;41724;51.176;-0.708;2023-02-10T03:14:10;103218.02;;;2.47;48.22
55517;BME280;41724;51.176;-0.708;2023-02-10T03:16:37;103213.80;;;2.52;48.33
55517;BME280;41724;51.176;-0.708;2023-02-10T03:19:04;103215.57;;;2.54;48.03
55517;BME280;41724;51.176;-0.708;2023-02-10T03:21:31;103214.50;;;2.47;47.41
55517;BME280;41724;51.176;-0.708;2023-02-10T03:23:58;103212.96;;;2.51;47.51
55517;BME280;41724;51.176;-0.708;2023-02-10T03:26:26;103211.19;;;2.81;47.47
55517;BME280;41724;51.176;-0.708;2023-02-10T03:28:53;103207.44;;;2.60;47.33
55517;BME280;41724;51.176;-0.708;2023-02-10T03:31:20;103202.09;;;2.79;47.15
55517;BME280;41724;51.176;-0.708;2023-02-10T03:33:48;103201.03;;;2.99;47.13
55517;BME280;41724;51.176;-0.708;2023-02-10T03:36:15;103201.02;;;2.44;47.36
55517;BME280;41724;51.176;-0.708;2023-02-10T03:38:42;103198.52;;;2.55;47.52
55517;BME280;41724;51.176;-0.708;2023-02-10T03:41:09;103200.53;;;2.54;47.12
55517;BME280;41724;51.176;-0.708;2023-02-10T03:43:37;103203.13;;;2.71;47.27
55517;BME280;41724;51.176;-0.708;2023-02-10T03:46:04;103203.84;;;2.43;47.58
55517;BME280;41724;51.176;-0.708;2023-02-10T03:48:31;103204.82;;;2.65;47.66
55517;BME280;41724;51.176;-0.708;2023-02-10T03:51:00;103204.20;;;2.17;47.68
55517;BME280;41724;51.176;-0.708;2023-02-10T03:53:29;103204.31;;;2.43;48.24
55517;BME280;41724;51.176;-0.708;2023-02-10T03:55:57;103198.07;;;2.46;48.13
55517;BME280;41724;51.176;-0.708;2023-02-10T03:58:25;103195.83;;;2.42;47.43
55517;BME280;41724;51.176;-0.708;2023-02-10T04:00:52;103194.68;;;1.96;47.16
55517;BME280;41724;51.176;-0.708;2023-02-10T04:03:19;103194.45;;;2.49;47.05
55517;BME280;41724;51.176;-0.708;2023-02-10T04:05:47;103195.78;;;2.37;47.92
55517;BME280;41724;51.176;-0.708;2023-02-10T04:08:14;103193.56;;;2.41;47.74
55517;BME280;41724;51.176;-0.708;2023-02-10T04:10:41;103194.55;;;2.40;47.55
55517;BME280;41724;51.176;-0.708;2023-02-10T04:13:08;103189.05;;;2.61;47.14
55517;BME280;41724;51.176;-0.708;2023-02-10T04:15:35;103187.76;;;2.39;47.30
55517;BME280;41724;51.176;-0.708;2023-02-10T04:18:02;103187.33;;;1.64;47.63
55517;BME280;41724;51.176;-0.708;2023-02-10T04:20:30;103185.17;;;1.68;47.60
55517;BME280;41724;51.176;-0.708;2023-02-10T04:22:57;103186.68;;;2.10;47.31
55517;BME280;41724;51.176;-0.708;2023-02-10T04:25:24;103182.86;;;2.24;47.16
55517;BME280;41724;51.176;-0.708;2023-02-10T04:27:51;103181.01;;;2.25;47.44
55517;BME280;41724;51.176;-0.708;2023-02-10T04:30:18;103178.00;;;1.83;47.74
55517;BME280;41724;51.176;-0.708;2023-02-10T04:32:46;103178.51;;;2.05;46.77
55517;BME280;41724;51.176;-0.708;2023-02-10T04:35:13;103183.22;;;1.83;47.48
55517;BME280;41724;51.176;-0.708;2023-02-10T04:37:40;103180.43;;;2.22;46.86
55517;BME280;41724;51.176;-0.708;2023-02-10T04:40:08;103182.27;;;1.86;47.34
55517;BME280;41724;51.176;-0.708;2023-02-10T04:42:35;103193.29;;;2.16;47.05
55517;BME280;41724;51.176;-0.708;2023-02-10T04:45:02;103197.23;;;2.12;47.00
55517;BME280;41724;51.176;-0.708;2023-02-10T04:47:30;103194.05;;;1.85;47.28
55517;BME280;41724;51.176;-0.708;2023-02-10T04:49:56;103194.93;;;1.97;47.34
55517;BME280;41724;51.176;-0.708;2023-02-10T04:52:24;103202.17;;;1.93;47.53
55517;BME280;41724;51.176;-0.708;2023-02-10T04:54:51;103205.10;;;1.84;47.67
55517;BME280;41724;51.176;-0.708;2023-02-10T04:57:18;103210.24;;;2.09;46.92
55517;BME280;41724;51.176;-0.708;2023-02-10T04:59:46;103216.76;;;2.04;46.68
55517;BME280;41724;51.176;-0.708;2023-02-10T05:02:13;103225.04;;;2.18;46.08
55517;BME280;41724;51.176;-0.708;2023-02-10T05:04:40;103226.20;;;2.11;46.29
55517;BME280;41724;51.176;-0.708;2023-02-10T05:07:07;103223.13;;;1.92;46.32
55517;BME280;41724;51.176;-0.708;2023-02-10T05:09:35;103215.42;;;1.75;46.61
55517;BME280;41724;51.176;-0.708;2023-02-10T05:12:03;103209.09;;;1.55;46.90
55517;BME280;41724;51.176;-0.708;2023-02-10T05:14:30;103205.61;;;1.70;46.91
55517;BME280;41724;51.176;-0.708;2023-02-10T05:16:57;103207.09;;;1.62;47.08
55517;BME280;41724;51.176;-0.708;2023-02-10T05:19:24;103200.65;;;1.38;47.74
55517;BME280;41724;51.176;-0.708;2023-02-10T05:21:51;103202.08;;;1.44;47.45
55517;BME280;41724;51.176;-0.708;2023-02-10T05:24:18;103205.15;;;1.80;47.38
55517;BME280;41724;51.176;-0.708;2023-02-10T05:26:46;103201.72;;;1.73;47.47
55517;BME280;41724;51.176;-0.708;2023-02-10T05:29:13;103200.87;;;1.72;47.45
55517;BME280;41724;51.176;-0.708;2023-02-10T05:31:40;103208.51;;;1.83;47.23
55517;BME280;41724;51.176;-0.708;2023-02-10T05:34:08;103208.08;;;1.89;47.17
55517;BME280;41724;51.176;-0.708;2023-02-10T05:36:35;103206.00;;;1.94;46.42
55517;BME280;41724;51.176;-0.708;2023-02-10T05:39:02;103202.04;;;1.73;47.08
55517;BME280;41724;51.176;-0.708;2023-02-10T05:41:30;103200.92;;;1.74;46.79
55517;BME280;41724;51.176;-0.708;2023-02-10T05:43:58;103194.61;;;1.69;46.60
55517;BME280;41724;51.176;-0.708;2023-02-10T05:46:25;103189.63;;;1.89;46.25
55517;BME280;41724;51.176;-0.708;2023-02-10T05:48:53;103187.40;;;1.89;46.56
55517;BME280;41724;51.176;-0.708;2023-02-10T05:51:19;103184.76;;;1.73;46.73
55517;BME280;41724;51.176;-0.708;2023-02-10T05:53:47;103186.74;;;1.63;46.43
55517;BME280;41724;51.176;-0.708;2023-02-10T05:56:14;103197.63;;;1.72;46.72
55517;BME280;41724;51.176;-0.708;2023-02-10T05:58:41;103202.98;;;1.69;46.71
55517;BME280;41724;51.176;-0.708;2023-02-10T06:01:09;103204.57;;;1.52;46.64
55517;BME280;41724;51.176;-0.708;2023-02-10T06:03:36;103203.60;;;1.29;46.86
55517;BME280;41724;51.176;-0.708;2023-02-10T06:06:04;103207.44;;;1.77;46.51
55517;BME280;41724;51.176;-0.708;2023-02-10T06:08:31;103202.82;;;1.23;47.22
55517;BME280;41724;51.176;-0.708;2023-02-10T06:10:59;103205.52;;;1.25;47.32
55517;BME280;41724;51.176;-0.708;2023-02-10T06:13:26;103212.77;;;1.36;46.62
55517;BME280;41724;51.176;-0.708;2023-02-10T06:15:53;103212.93;;;1.54;46.17
55517;BME280;41724;51.176;-0.708;2023-02-10T06:18:20;103207.82;;;1.20;46.79
55517;BME280;41724;51.176;-0.708;2023-02-10T06:20:48;103211.90;;;1.22;47.17
55517;BME280;41724;51.176;-0.708;2023-02-10T06:23:15;103209.75;;;1.35;47.45
55517;BME280;41724;51.176;-0.708;2023-02-10T06:25:42;103204.41;;;1.05;47.27
55517;BME280;41724;51.176;-0.708;2023-02-10T06:28:09;103208.59;;;1.35;46.98
55517;BME280;41724;51.176;-0.708;2023-02-10T06:30:36;103210.78;;;1.37;46.89
55517;BME280;41724;51.176;-0.708;2023-02-10T06:33:03;103217.45;;;1.57;46.69
55517;BME280;41724;51.176;-0.708;2023-02-10T06:35:30;103224.83;;;1.11;47.11
55517;BME280;41724;51.176;-0.708;2023-02-10T06:37:57;103225.56;;;1.03;46.70
55517;BME280;41724;51.176;-0.708;2023-02-10T06:40:25;103219.95;;;1.23;47.01
55517;BME280;41724;51.176;-0.708;2023-02-10T06:42:52;103220.00;;;0.36;47.35
55517;BME280;41724;51.176;-0.708;2023-02-10T06:45:19;103216.11;;;0.96;46.82
55517;BME280;41724;51.176;-0.708;2023-02-10T06:47:45;103213.29;;;0.82;47.05
55517;BME280;41724;51.176;-0.708;2023-02-10T06:50:13;103219.42;;;1.54;46.51
55517;BME280;41724;51.176;-0.708;2023-02-10T06:52:40;103227.02;;;0.96;46.88
55517;BME280;41724;51.176;-0.708;2023-02-10T06:55:07;103223.55;;;1.55;46.47
55517;BME280;41724;51.176;-0.708;2023-02-10T06:57:35;103218.94;;;0.89;46.46
55517;BME280;41724;51.176;-0.708;2023-02-10T07:00:02;103220.23;;;1.37;46.88
55517;BME280;41724;51.176;-0.708;2023-02-10T07:02:29;103220.61;;;1.31;46.80
55517;BME280;41724;51.176;-0.708;2023-02-10T07:04:56;103221.85;;;1.19;46.58
55517;BME280;41724;51.176;-0.708;2023-02-10T07:07:24;103222.25;;;1.56;46.26
55517;BME280;41724;51.176;-0.708;2023-02-10T07:09:51;103225.91;;;1.33;46.26
55517;BME280;41724;51.176;-0.708;2023-02-10T07:12:19;103227.24;;;1.37;46.48
55517;BME280;41724;51.176;-0.708;2023-02-10T07:14:47;103231.28;;;1.72;46.61
55517;BME280;41724;51.176;-0.708;2023-02-10T07:17:15;103231.91;;;1.76;46.65
55517;BME280;41724;51.176;-0.708;2023-02-10T07:19:42;103236.88;;;1.85;46.59
55517;BME280;41724;51.176;-0.708;2023-02-10T07:22:09;103242.45;;;1.76;46.20
55517;BME280;41724;51.176;-0.708;2023-02-10T07:24:37;103250.43;;;2.04;46.22
55517;BME280;41724;51.176;-0.708;2023-02-10T07:27:05;103254.19;;;1.79;46.50
55517;BME280;41724;51.176;-0.708;2023-02-10T07:29:32;103254.52;;;1.73;46.71
55517;BME280;41724;51.176;-0.708;2023-02-10T07:31:58;103254.29;;;1.69;46.18
55517;BME280;41724;51.176;-0.708;2023-02-10T07:34:27;103253.26;;;1.59;46.72
55517;BME280;41724;51.176;-0.708;2023-02-10T07:36:54;103256.21;;;1.61;46.63
55517;BME280;41724;51.176;-0.708;2023-02-10T07:39:22;103254.56;;;1.82;46.38
55517;BME280;41724;51.176;-0.708;2023-02-10T07:41:50;103252.02;;;1.91;45.97
55517;BME280;41724;51.176;-0.708;2023-02-10T07:44:18;103253.54;;;1.92;45.96
55517;BME280;41724;51.176;-0.708;2023-02-10T07:46:46;103251.86;;;1.97;45.89
55517;BME280;41724;51.176;-0.708;2023-02-10T07:49:12;103247.65;;;1.98;45.86
55517;BME280;41724;51.176;-0.708;2023-02-10T07:51:40;103243.63;;;1.80;46.01
55517;BME280;41724;51.176;-0.708;2023-02-10T07:54:07;103246.82;;;1.47;46.44
55517;BME280;41724;51.176;-0.708;2023-02-10T07:56:39;103241.03;;;1.84;46.78
55517;BME280;41724;51.176;-0.708;2023-02-10T07:59:06;103247.72;;;1.40;47.24
55517;BME280;41724;51.176;-0.708;2023-02-10T08:01:34;103247.17;;;1.49;47.23
55517;BME280;41724;51.176;-0.708;2023-02-10T08:04:01;103246.60;;;1.60;47.01
55517;BME280;41724;51.176;-0.708;2023-02-10T08:06:28;103253.41;;;1.74;46.89
55517;BME280;41724;51.176;-0.708;2023-02-10T08:08:55;103255.88;;;1.84;47.13
55517;BME280;41724;51.176;-0.708;2023-02-10T08:11:22;103260.75;;;2.07;46.86
55517;BME280;41724;51.176;-0.708;2023-02-10T08:13:50;103260.02;;;2.40;46.46
55517;BME280;41724;51.176;-0.708;2023-02-10T08:16:17;103265.91;;;2.21;46.75
55517;BME280;41724;51.176;-0.708;2023-02-10T08:18:44;103266.45;;;2.21;46.99
55517;BME280;41724;51.176;-0.708;2023-02-10T08:21:11;103264.33;;;2.32;47.06
55517;BME280;41724;51.176;-0.708;2023-02-10T08:23:39;103260.56;;;2.05;47.28
55517;BME280;41724;51.176;-0.708;2023-02-10T08:26:08;103263.56;;;2.17;47.69
55517;BME280;41724;51.176;-0.708;2023-02-10T08:28:36;103274.50;;;2.47;46.84
55517;BME280;41724;51.176;-0.708;2023-02-10T08:31:06;103276.25;;;2.56;46.92
55517;BME280;41724;51.176;-0.708;2023-02-10T08:33:34;103270.70;;;2.42;46.90
55517;BME280;41724;51.176;-0.708;2023-02-10T08:36:04;103270.09;;;2.27;47.33
55517;BME280;41724;51.176;-0.708;2023-02-10T08:38:32;103267.74;;;2.65;47.52
55517;BME280;41724;51.176;-0.708;2023-02-10T08:40:59;103273.12;;;2.60;47.95
55517;BME280;41724;51.176;-0.708;2023-02-10T08:43:27;103272.25;;;2.68;48.25
55517;BME280;41724;51.176;-0.708;2023-02-10T08:45:56;103273.07;;;3.10;48.34
55517;BME280;41724;51.176;-0.708;2023-02-10T08:48:23;103276.24;;;2.88;47.98
55517;BME280;41724;51.176;-0.708;2023-02-10T08:50:51;103282.88;;;3.16;47.79
55517;BME280;41724;51.176;-0.708;2023-02-10T08:53:17;103288.96;;;3.59;47.92
55517;BME280;41724;51.176;-0.708;2023-02-10T08:55:44;103292.54;;;3.41;47.29
55517;BME280;41724;51.176;-0.708;2023-02-10T08:58:11;103289.41;;;3.53;47.62
55517;BME280;41724;51.176;-0.708;2023-02-10T09:00:38;103285.86;;;3.54;47.66
55517;BME280;41724;51.176;-0.708;2023-02-10T09:03:05;103287.44;;;3.87;48.78
55517;BME280;41724;51.176;-0.708;2023-02-10T09:05:35;103283.19;;;3.47;49.16
55517;BME280;41724;51.176;-0.708;2023-02-10T09:08:02;103279.08;;;3.91;49.01
55517;BME280;41724;51.176;-0.708;2023-02-10T09:10:31;103280.40;;;4.15;48.62
55517;BME280;41724;51.176;-0.708;2023-02-10T09:12:58;103278.87;;;4.49;49.07
55517;BME280;41724;51.176;-0.708;2023-02-10T09:15:25;103279.32;;;3.98;49.41
55517;BME280;41724;51.176;-0.708;2023-02-10T09:17:57;103283.14;;;4.85;48.62
55517;BME280;41724;51.176;-0.708;2023-02-10T09:20:25;103286.24;;;4.86;48.59
55517;BME280;41724;51.176;-0.708;2023-02-10T09:22:53;103288.15;;;5.12;48.38
55517;BME280;41724;51.176;-0.708;2023-02-10T09:25:20;103294.52;;;5.13;49.16
55517;BME280;41724;51.176;-0.708;2023-02-10T09:27:47;103299.94;;;5.02;49.97
55517;BME280;41724;51.176;-0.708;2023-02-10T09:30:13;103300.68;;;5.20;50.04
55517;BME280;41724;51.176;-0.708;2023-02-10T09:32:40;103300.32;;;5.23;49.25
55517;BME280;41724;51.176;-0.708;2023-02-10T09:35:07;103305.86;;;5.52;48.92
55517;BME280;41724;51.176;-0.708;2023-02-10T09:37:35;103304.16;;;5.64;48.67
55517;BME280;41724;51.176;-0.708;2023-02-10T09:40:10;103302.49;;;5.79;48.76
55517;BME280;41724;51.176;-0.708;2023-02-10T09:42:50;103302.15;;;5.94;48.53
55517;BME280;41724;51.176;-0.708;2023-02-10T09:45:26;103298.57;;;6.18;48.19
55517;BME280;41724;51.176;-0.708;2023-02-10T09:47:58;103300.15;;;6.32;48.12
55517;BME280;41724;51.176;-0.708;2023-02-10T09:50:34;103298.81;;;6.61;47.91
55517;BME280;41724;51.176;-0.708;2023-02-10T09:53:09;103297.72;;;6.71;47.78
55517;BME280;41724;51.176;-0.708;2023-02-10T09:55:41;103298.51;;;6.82;47.37
55517;BME280;41724;51.176;-0.708;2023-02-10T09:58:16;103300.01;;;6.30;47.44
55517;BME280;41724;51.176;-0.708;2023-02-10T10:00:45;103300.09;;;6.32;47.59
55517;BME280;41724;51.176;-0.708;2023-02-10T10:03:15;103297.23;;;6.63;48.25
55517;BME280;41724;51.176;-0.708;2023-02-10T10:05:52;103297.77;;;6.36;48.27
55517;BME280;41724;51.176;-0.708;2023-02-10T10:08:27;103296.10;;;6.29;48.20
55517;BME280;41724;51.176;-0.708;2023-02-10T10:11:01;103293.75;;;6.87;48.71
55517;BME280;41724;51.176;-0.708;2023-02-10T10:13:31;103290.57;;;6.46;49.16
55517;BME280;41724;51.176;-0.708;2023-02-10T10:16:13;103281.08;;;6.49;48.78
55517;BME280;41724;51.176;-0.708;2023-02-10T10:18:54;103276.52;;;6.91;48.40
55517;BME280;41724;51.176;-0.708;2023-02-10T10:21:28;103283.81;;;6.82;48.19
55517;BME280;41724;51.176;-0.708;2023-02-10T10:24:10;103286.16;;;6.91;48.33
55517;BME280;41724;51.176;-0.708;2023-02-10T10:26:48;103287.51;;;6.99;49.04
55517;BME280;41724;51.176;-0.708;2023-02-10T10:29:28;103290.93;;;7.12;49.99
55517;BME280;41724;51.176;-0.708;2023-02-10T10:32:04;103291.11;;;6.92;51.83
55517;BME280;41724;51.176;-0.708;2023-02-10T10:34:38;103290.52;;;7.26;52.09
55517;BME280;41724;51.176;-0.708;2023-02-10T10:37:13;103294.10;;;5.62;57.41
55517;BME280;41724;51.176;-0.708;2023-02-10T10:39:44;103292.05;;;5.46;59.83
55517;BME280;41724;51.176;-0.708;2023-02-10T10:42:21;103297.35;;;4.64;62.09
55517;BME280;41724;51.176;-0.708;2023-02-10T10:44:50;103307.46;;;5.58;60.20
55517;BME280;41724;51.176;-0.708;2023-02-10T10:47:25;103302.37;;;5.30;59.30
55517;BME280;41724;51.176;-0.708;2023-02-10T10:49:57;103303.01;;;6.52;58.02
55517;BME280;41724;51.176;-0.708;2023-02-10T10:52:27;103299.17;;;5.78;59.28
55517;BME280;41724;51.176;-0.708;2023-02-10T10:54:56;103289.92;;;5.93;57.93
55517;BME280;41724;51.176;-0.708;2023-02-10T10:57:24;103290.23;;;5.71;57.26
55517;BME280;41724;51.176;-0.708;2023-02-10T10:59:54;103293.76;;;5.38;59.33
55517;BME280;41724;51.176;-0.708;2023-02-10T11:02:23;103290.96;;;6.00;57.91
55517;BME280;41724;51.176;-0.708;2023-02-10T11:05:01;103287.79;;;5.55;57.21
55517;BME280;41724;51.176;-0.708;2023-02-10T11:07:31;103289.00;;;5.98;55.90
55517;BME280;41724;51.176;-0.708;2023-02-10T11:10:00;103300.67;;;4.63;58.29
55517;BME280;41724;51.176;-0.708;2023-02-10T11:12:31;103296.12;;;5.12;58.55
55517;BME280;41724;51.176;-0.708;2023-02-10T11:14:59;103293.77;;;4.71;59.50
55517;BME280;41724;51.176;-0.708;2023-02-10T11:17:32;103290.03;;;5.82;56.04
55517;BME280;41724;51.176;-0.708;2023-02-10T11:20:23;103283.34;;;6.68;54.06
55517;BME280;41724;51.176;-0.708;2023-02-10T11:22:57;103288.34;;;6.20;53.84
55517;BME280;41724;51.176;-0.708;2023-02-10T11:25:28;103284.31;;;6.55;53.10
55517;BME280;41724;51.176;-0.708;2023-02-10T11:27:57;103286.66;;;6.35;54.04
55517;BME280;41724;51.176;-0.708;2023-02-10T11:30:27;103283.09;;;5.83;54.93
55517;BME280;41724;51.176;-0.708;2023-02-10T11:32:56;103274.68;;;6.18;53.39
55517;BME280;41724;51.176;-0.708;2023-02-10T11:35:25;103271.19;;;6.60;52.01
55517;BME280;41724;51.176;-0.708;2023-02-10T11:37:54;103277.33;;;7.07;51.17
55517;BME280;41724;51.176;-0.708;2023-02-10T11:40:25;103286.40;;;7.13;51.10
55517;BME280;41724;51.176;-0.708;2023-02-10T11:42:55;103284.76;;;7.85;49.05
55517;BME280;41724;51.176;-0.708;2023-02-10T11:45:24;103282.05;;;7.57;48.91
55517;BME280;41724;51.176;-0.708;2023-02-10T11:48:02;103281.22;;;6.76;51.31
55517;BME280;41724;51.176;-0.708;2023-02-10T11:50:31;103269.33;;;7.73;49.69
55517;BME280;41724;51.176;-0.708;2023-02-10T11:53:00;103264.45;;;7.59;49.10
55517;BME280;41724;51.176;-0.708;2023-02-10T11:55:35;103259.45;;;7.30;49.89
55517;BME280;41724;51.176;-0.708;2023-02-10T11:58:20;103255.45;;;7.33;50.92
55517;BME280;41724;51.176;-0.708;2023-02-10T12:00:57;103245.49;;;7.50;50.25
55517;BME280;41724;51.176;-0.708;2023-02-10T12:03:43;103249.08;;;7.84;49.48
55517;BME280;41724;51.176;-0.708;2023-02-10T12:06:20;103247.91;;;7.51;51.03
55517;BME280;41724;51.176;-0.708;2023-02-10T12:08:56;103241.93;;;7.92;50.28
55517;BME280;41724;51.176;-0.708;2023-02-10T12:11:33;103246.43;;;8.77;48.36
55517;BME280;41724;51.176;-0.708;2023-02-10T12:14:19;103242.54;;;9.25;46.80
55517;BME280;41724;51.176;-0.708;2023-02-10T12:16:59;103241.64;;;9.33;45.92
55517;BME280;41724;51.176;-0.708;2023-02-10T12:19:35;103245.62;;;9.05;46.47
55517;BME280;41724;51.176;-0.708;2023-02-10T12:22:05;103240.02;;;8.95;46.00
55517;BME280;41724;51.176;-0.708;2023-02-10T12:24:53;103221.52;;;9.14;47.00
55517;BME280;41724;51.176;-0.708;2023-02-10T12:27:30;103210.31;;;9.75;44.93
55517;BME280;41724;51.176;-0.708;2023-02-10T12:30:06;103212.51;;;9.25;46.08
55517;BME280;41724;51.176;-0.708;2023-02-10T12:32:43;103217.24;;;8.97;46.21
55517;BME280;41724;51.176;-0.708;2023-02-10T12:35:22;103204.32;;;9.64;45.94
55517;BME280;41724;51.176;-0.708;2023-02-10T12:38:00;103203.66;;;10.62;44.68
55517;BME280;41724;51.176;-0.708;2023-02-10T12:40:45;103202.82;;;10.35;43.02
55517;BME280;41724;51.176;-0.708;2023-02-10T12:43:35;103210.21;;;8.66;47.39
55517;BME280;41724;51.176;-0.708;2023-02-10T12:46:14;103207.92;;;9.77;45.98
55517;BME280;41724;51.176;-0.708;2023-02-10T12:48:56;103207.21;;;9.25;46.42
55517;BME280;41724;51.176;-0.708;2023-02-10T12:51:40;103201.95;;;8.55;47.50
55517;BME280;41724;51.176;-0.708;2023-02-10T12:54:14;103191.94;;;9.43;46.80
55517;BME280;41724;51.176;-0.708;2023-02-10T12:56:46;103186.41;;;8.39;49.03
55517;BME280;41724;51.176;-0.708;2023-02-10T12:59:19;103191.65;;;8.84;49.09
55517;BME280;41724;51.176;-0.708;2023-02-10T13:01:51;103183.64;;;8.32;49.26
55517;BME280;41724;51.176;-0.708;2023-02-10T13:04:24;103185.46;;;8.26;49.52